sensor_id;sensor_type;location;lat;lon;timestamp;temperature;humidity
3648;DHT22;1840;48.892;15.312;2023-09-18T00:01:20;12.90;97.40
3648;DHT22;1840;48.892;15.312;2023-09-18T00:03:48;12.80;97.50
3648;DHT22;1840;48.892;15.312;2023-09-18T00:06:16;12.80;97.60
3648;DHT22;1840;48.892;15.312;2023-09-18T00:08:44;12.80;97.50
3648;DHT22;1840;48.892;15.312;2023-09-18T00:11:14;12.80;97.60
3648;DHT22;1840;48.892;15.312;2023-09-18T00:13:42;12.80;97.70
3648;DHT22;1840;48.892;15.312;2023-09-18T00:16:10;12.70;97.60
3648;DHT22;1840;48.892;15.312;2023-09-18T00:18:40;12.70;97.60
3648;DHT22;1840;48.892;15.312;2023-09-18T00:21:08;12.70;97.70
3648;DHT22;1840;48.892;15.312;2023-09-18T00:23:37;12.70;97.60
3648;DHT22;1840;48.892;15.312;2023-09-18T00:26:05;12.70;97.70
3648;DHT22;1840;48.892;15.312;2023-09-18T00:28:35;12.60;97.70
3648;DHT22;1840;48.892;15.312;2023-09-18T00:31:03;12.60;97.60
3648;DHT22;1840;48.892;15.312;2023-09-18T00:33:31;12.50;97.60
3648;DHT22;1840;48.892;15.312;2023-09-18T00:35:59;12.60;97.70
3648;DHT22;1840;48.892;15.312;2023-09-18T00:38:27;12.70;97.80
3648;DHT22;1840;48.892;15.312;2023-09-18T00:40:56;12.70;98.10
3648;DHT22;1840;48.892;15.312;2023-09-18T00:43:24;12.80;98.30
3648;DHT22;1840;48.892;15.312;2023-09-18T00:45:53;12.90;98.40
3648;DHT22;1840;48.892;15.312;2023-09-18T00:48:21;12.90;98.40
3648;DHT22;1840;48.892;15.312;2023-09-18T00:50:50;12.90;98.50
3648;DHT22;1840;48.892;15.312;2023-09-18T00:53:21;12.90;98.50
3648;DHT22;1840;48.892;15.312;2023-09-18T00:55:50;12.90;98.40
3648;DHT22;1840;48.892;15.312;2023-09-18T00:58:21;12.50;97.30
3648;DHT22;1840;48.892;15.312;2023-09-18T01:00:50;12.30;97.60
3648;DHT22;1840;48.892;15.312;2023-09-18T01:03:21;12.30;97.60
3648;DHT22;1840;48.892;15.312;2023-09-18T01:05:53;12.30;97.50
3648;DHT22;1840;48.892;15.312;2023-09-18T01:08:21;12.30;97.40
3648;DHT22;1840;48.892;15.312;2023-09-18T01:10:56;12.20;97.50
3648;DHT22;1840;48.892;15.312;2023-09-18T01:13:30;12.10;97.50
3648;DHT22;1840;48.892;15.312;2023-09-18T01:16:08;12.10;97.70
3648;DHT22;1840;48.892;15.312;2023-09-18T01:18:48;12.10;98.00
3648;DHT22;1840;48.892;15.312;2023-09-18T01:21:19;12.20;98.10
3648;DHT22;1840;48.892;15.312;2023-09-18T01:23:49;12.20;98.20
3648;DHT22;1840;48.892;15.312;2023-09-18T01:26:18;12.30;98.40
3648;DHT22;1840;48.892;15.312;2023-09-18T01:28:46;12.30;98.50
3648;DHT22;1840;48.892;15.312;2023-09-18T01:31:14;12.30;98.40
3648;DHT22;1840;48.892;15.312;2023-09-18T01:33:45;12.40;98.60
3648;DHT22;1840;48.892;15.312;2023-09-18T01:36:17;12.40;98.70
3648;DHT22;1840;48.892;15.312;2023-09-18T01:38:46;12.40;98.80
3648;DHT22;1840;48.892;15.312;2023-09-18T01:41:16;12.40;99.10
3648;DHT22;1840;48.892;15.312;2023-09-18T01:43:44;12.40;99.00
3648;DHT22;1840;48.892;15.312;2023-09-18T01:46:13;12.20;99.10
3648;DHT22;1840;48.892;15.312;2023-09-18T01:48:46;12.20;99.10
3648;DHT22;1840;48.892;15.312;2023-09-18T01:51:14;12.30;99.20
3648;DHT22;1840;48.892;15.312;2023-09-18T01:53:43;12.30;99.30
3648;DHT22;1840;48.892;15.312;2023-09-18T01:56:11;12.20;99.20
3648;DHT22;1840;48.892;15.312;2023-09-18T01:58:40;12.20;99.20
3648;DHT22;1840;48.892;15.312;2023-09-18T02:01:09;12.20;99.30
3648;DHT22;1840;48.892;15.312;2023-09-18T02:03:37;12.20;99.40
3648;DHT22;1840;48.892;15.312;2023-09-18T02:06:28;12.20;99.60
3648;DHT22;1840;48.892;15.312;2023-09-18T02:08:57;12.30;99.90
3648;DHT22;1840;48.892;15.312;2023-09-18T02:11:26;12.30;99.90
3648;DHT22;1840;48.892;15.312;2023-09-18T02:13:55;12.40;99.90
3648;DHT22;1840;48.892;15.312;2023-09-18T02:16:24;12.40;99.90
3648;DHT22;1840;48.892;15.312;2023-09-18T02:18:54;12.50;99.90
3648;DHT22;1840;48.892;15.312;2023-09-18T02:21:23;12.50;99.90
3648;DHT22;1840;48.892;15.312;2023-09-18T02:23:53;12.40;99.90
3648;DHT22;1840;48.892;15.312;2023-09-18T02:26:22;12.40;99.90
3648;DHT22;1840;48.892;15.312;2023-09-18T02:28:51;12.30;99.90
3648;DHT22;1840;48.892;15.312;2023-09-18T02:31:21;12.30;99.90
3648;DHT22;1840;48.892;15.312;2023-09-18T02:33:50;12.40;99.90
3648;DHT22;1840;48.892;15.312;2023-09-18T02:36:18;12.50;99.90
3648;DHT22;1840;48.892;15.312;2023-09-18T02:38:46;12.50;99.90
3648;DHT22;1840;48.892;15.312;2023-09-18T02:41:14;12.40;99.90
3648;DHT22;1840;48.892;15.312;2023-09-18T02:43:42;12.30;99.90
3648;DHT22;1840;48.892;15.312;2023-09-18T02:46:10;12.30;99.90
3648;DHT22;1840;48.892;15.312;2023-09-18T02:48:40;12.40;99.90
3648;DHT22;1840;48.892;15.312;2023-09-18T02:51:08;12.40;99.90
3648;DHT22;1840;48.892;15.312;2023-09-18T02:53:36;12.40;99.90
3648;DHT22;1840;48.892;15.312;2023-09-18T02:56:05;12.50;99.90
3648;DHT22;1840;48.892;15.312;2023-09-18T02:58:33;12.60;99.90
3648;DHT22;1840;48.892;15.312;2023-09-18T03:01:01;12.70;99.90
3648;DHT22;1840;48.892;15.312;2023-09-18T03:03:30;12.70;99.90
3648;DHT22;1840;48.892;15.312;2023-09-18T03:06:04;12.60;99.90
3648;DHT22;1840;48.892;15.312;2023-09-18T03:08:33;12.60;99.90
3648;DHT22;1840;48.892;15.312;2023-09-18T03:11:02;12.60;99.90
3648;DHT22;1840;48.892;15.312;2023-09-18T03:13:31;12.90;99.90
3648;DHT22;1840;48.892;15.312;2023-09-18T03:15:59;12.90;99.90
3648;DHT22;1840;48.892;15.312;2023-09-18T03:18:27;13.00;99.90
3648;DHT22;1840;48.892;15.312;2023-09-18T03:20:55;13.10;99.90
3648;DHT22;1840;48.892;15.312;2023-09-18T03:23:25;13.20;99.90
3648;DHT22;1840;48.892;15.312;2023-09-18T03:25:53;13.20;99.90
3648;DHT22;1840;48.892;15.312;2023-09-18T03:28:21;13.30;99.90
3648;DHT22;1840;48.892;15.312;2023-09-18T03:30:49;13.10;99.90
3648;DHT22;1840;48.892;15.312;2023-09-18T03:33:18;13.00;99.90
3648;DHT22;1840;48.892;15.312;2023-09-18T03:35:47;13.00;99.90
3648;DHT22;1840;48.892;15.312;2023-09-18T03:38:16;12.90;99.90
3648;DHT22;1840;48.892;15.312;2023-09-18T03:40:46;13.00;99.90
3648;DHT22;1840;48.892;15.312;2023-09-18T03:43:14;13.00;99.90
3648;DHT22;1840;48.892;15.312;2023-09-18T03:45:43;13.00;99.90
3648;DHT22;1840;48.892;15.312;2023-09-18T03:48:11;12.80;99.90
3648;DHT22;1840;48.892;15.312;2023-09-18T03:50:39;12.90;99.90
3648;DHT22;1840;48.892;15.312;2023-09-18T03:53:08;13.00;99.90
3648;DHT22;1840;48.892;15.312;2023-09-18T03:55:36;13.00;99.90
3648;DHT22;1840;48.892;15.312;2023-09-18T03:58:06;13.00;99.90
3648;DHT22;1840;48.892;15.312;2023-09-18T04:00:35;12.90;99.90
3648;DHT22;1840;48.892;15.312;2023-09-18T04:03:03;12.90;99.90
3648;DHT22;1840;48.892;15.312;2023-09-18T04:05:32;12.90;99.90
3648;DHT22;1840;48.892;15.312;2023-09-18T04:08:00;12.90;99.90
3648;DHT22;1840;48.892;15.312;2023-09-18T04:10:29;13.00;99.90
3648;DHT22;1840;48.892;15.312;2023-09-18T04:12:57;13.10;99.90
3648;DHT22;1840;48.892;15.312;2023-09-18T04:15:26;13.00;99.90
3648;DHT22;1840;48.892;15.312;2023-09-18T04:17:57;13.00;99.90
3648;DHT22;1840;48.892;15.312;2023-09-18T04:20:25;13.10;99.90
3648;DHT22;1840;48.892;15.312;2023-09-18T04:23:18;13.20;99.90
3648;DHT22;1840;48.892;15.312;2023-09-18T04:25:47;13.40;99.90
3648;DHT22;1840;48.892;15.312;2023-09-18T04:28:17;13.40;99.90
3648;DHT22;1840;48.892;15.312;2023-09-18T04:30:47;13.50;99.90
3648;DHT22;1840;48.892;15.312;2023-09-18T04:33:16;13.50;99.90
3648;DHT22;1840;48.892;15.312;2023-09-18T04:35:44;13.50;99.90
3648;DHT22;1840;48.892;15.312;2023-09-18T04:38:12;13.50;99.90
3648;DHT22;1840;48.892;15.312;2023-09-18T04:40:42;13.50;99.90
3648;DHT22;1840;48.892;15.312;2023-09-18T04:43:10;13.60;99.90
3648;DHT22;1840;48.892;15.312;2023-09-18T04:45:38;13.50;99.90
3648;DHT22;1840;48.892;15.312;2023-09-18T04:48:07;13.50;99.90
3648;DHT22;1840;48.892;15.312;2023-09-18T04:50:36;13.60;99.90
3648;DHT22;1840;48.892;15.312;2023-09-18T04:53:04;13.70;99.90
3648;DHT22;1840;48.892;15.312;2023-09-18T04:55:32;13.60;99.90
3648;DHT22;1840;48.892;15.312;2023-09-18T04:58:00;13.70;99.90
3648;DHT22;1840;48.892;15.312;2023-09-18T05:00:28;13.70;99.90
3648;DHT22;1840;48.892;15.312;2023-09-18T05:02:56;13.70;99.90
3648;DHT22;1840;48.892;15.312;2023-09-18T05:05:29;13.70;99.90
3648;DHT22;1840;48.892;15.312;2023-09-18T05:07:56;13.70;99.90
3648;DHT22;1840;48.892;15.312;2023-09-18T05:10:24;13.80;99.90
3648;DHT22;1840;48.892;15.312;2023-09-18T05:12:53;13.70;99.90
3648;DHT22;1840;48.892;15.312;2023-09-18T05:15:26;13.90;99.90
3648;DHT22;1840;48.892;15.312;2023-09-18T05:17:57;13.80;99.90
3648;DHT22;1840;48.892;15.312;2023-09-18T05:20:28;13.80;99.90
3648;DHT22;1840;48.892;15.312;2023-09-18T05:22:58;13.90;99.90
3648;DHT22;1840;48.892;15.312;2023-09-18T05:25:28;13.90;99.90
3648;DHT22;1840;48.892;15.312;2023-09-18T05:28:00;13.90;99.90
3648;DHT22;1840;48.892;15.312;2023-09-18T05:30:30;13.90;99.90
3648;DHT22;1840;48.892;15.312;2023-09-18T05:33:02;13.90;99.90
3648;DHT22;1840;48.892;15.312;2023-09-18T05:35:34;13.70;99.90
3648;DHT22;1840;48.892;15.312;2023-09-18T05:38:03;13.70;99.90
3648;DHT22;1840;48.892;15.312;2023-09-18T05:40:32;13.70;99.90
3648;DHT22;1840;48.892;15.312;2023-09-18T05:43:00;13.50;99.90
3648;DHT22;1840;48.892;15.312;2023-09-18T05:45:28;13.60;99.90
3648;DHT22;1840;48.892;15.312;2023-09-18T05:47:58;13.60;99.90
3648;DHT22;1840;48.892;15.312;2023-09-18T05:50:31;13.80;99.90
3648;DHT22;1840;48.892;15.312;2023-09-18T05:53:02;13.80;99.90
3648;DHT22;1840;48.892;15.312;2023-09-18T05:55:32;14.00;99.90
3648;DHT22;1840;48.892;15.312;2023-09-18T05:58:01;14.00;99.90
3648;DHT22;1840;48.892;15.312;2023-09-18T06:00:31;14.10;99.90
3648;DHT22;1840;48.892;15.312;2023-09-18T06:03:00;14.20;99.90
3648;DHT22;1840;48.892;15.312;2023-09-18T06:05:28;14.30;99.90
3648;DHT22;1840;48.892;15.312;2023-09-18T06:07:58;14.40;99.90
3648;DHT22;1840;48.892;15.312;2023-09-18T06:10:28;14.40;99.90
3648;DHT22;1840;48.892;15.312;2023-09-18T06:12:56;14.30;99.90
3648;DHT22;1840;48.892;15.312;2023-09-18T06:15:25;14.50;99.90
3648;DHT22;1840;48.892;15.312;2023-09-18T06:17:53;14.50;99.90
3648;DHT22;1840;48.892;15.312;2023-09-18T06:20:22;14.50;99.90
3648;DHT22;1840;48.892;15.312;2023-09-18T06:22:50;14.50;99.90
3648;DHT22;1840;48.892;15.312;2023-09-18T06:25:18;14.60;99.90
3648;DHT22;1840;48.892;15.312;2023-09-18T06:27:48;14.70;99.90
3648;DHT22;1840;48.892;15.312;2023-09-18T06:30:16;14.70;99.90
3648;DHT22;1840;48.892;15.312;2023-09-18T06:32:44;14.70;99.90
3648;DHT22;1840;48.892;15.312;2023-09-18T06:35:12;14.60;99.90
3648;DHT22;1840;48.892;15.312;2023-09-18T06:37:40;14.60;99.90
3648;DHT22;1840;48.892;15.312;2023-09-18T06:40:09;14.60;99.90
3648;DHT22;1840;48.892;15.312;2023-09-18T06:42:37;14.70;99.90
3648;DHT22;1840;48.892;15.312;2023-09-18T06:45:08;14.80;99.90
3648;DHT22;1840;48.892;15.312;2023-09-18T06:47:36;14.80;99.90
3648;DHT22;1840;48.892;15.312;2023-09-18T06:50:08;15.00;99.90
3648;DHT22;1840;48.892;15.312;2023-09-18T06:52:39;15.10;99.90
3648;DHT22;1840;48.892;15.312;2023-09-18T06:55:08;15.20;99.90
3648;DHT22;1840;48.892;15.312;2023-09-18T06:57:36;15.30;99.90
3648;DHT22;1840;48.892;15.312;2023-09-18T07:00:08;15.20;99.90
3648;DHT22;1840;48.892;15.312;2023-09-18T07:02:36;15.20;99.90
3648;DHT22;1840;48.892;15.312;2023-09-18T07:05:06;15.30;99.90
3648;DHT22;1840;48.892;15.312;2023-09-18T07:07:34;15.30;99.90
3648;DHT22;1840;48.892;15.312;2023-09-18T07:10:03;15.20;99.90
3648;DHT22;1840;48.892;15.312;2023-09-18T07:12:32;15.20;99.90
3648;DHT22;1840;48.892;15.312;2023-09-18T07:15:01;15.50;99.90
3648;DHT22;1840;48.892;15.312;2023-09-18T07:17:33;15.50;99.90
3648;DHT22;1840;48.892;15.312;2023-09-18T07:20:03;15.60;99.90
3648;DHT22;1840;48.892;15.312;2023-09-18T07:22:37;15.70;99.90
3648;DHT22;1840;48.892;15.312;2023-09-18T07:25:06;15.80;99.90
3648;DHT22;1840;48.892;15.312;2023-09-18T07:27:34;15.80;99.90
3648;DHT22;1840;48.892;15.312;2023-09-18T07:30:06;15.90;99.90
3648;DHT22;1840;48.892;15.312;2023-09-18T07:32:36;16.20;99.90
3648;DHT22;1840;48.892;15.312;2023-09-18T07:35:06;16.20;99.90
3648;DHT22;1840;48.892;15.312;2023-09-18T07:37:35;16.20;99.90
3648;DHT22;1840;48.892;15.312;2023-09-18T07:40:05;16.40;99.90
3648;DHT22;1840;48.892;15.312;2023-09-18T07:42:33;16.40;99.90
3648;DHT22;1840;48.892;15.312;2023-09-18T07:45:02;16.50;99.90
3648;DHT22;1840;48.892;15.312;2023-09-18T07:47:30;16.80;99.90
3648;DHT22;1840;48.892;15.312;2023-09-18T07:50:00;16.90;99.90
3648;DHT22;1840;48.892;15.312;2023-09-18T07:52:28;17.10;99.90
3648;DHT22;1840;48.892;15.312;2023-09-18T07:54:58;17.20;99.90
3648;DHT22;1840;48.892;15.312;2023-09-18T07:57:26;17.60;99.90
3648;DHT22;1840;48.892;15.312;2023-09-18T07:59:57;17.80;99.90
3648;DHT22;1840;48.892;15.312;2023-09-18T08:02:25;17.90;99.90
3648;DHT22;1840;48.892;15.312;2023-09-18T08:04:56;18.20;99.90
3648;DHT22;1840;48.892;15.312;2023-09-18T08:07:25;18.30;99.90
3648;DHT22;1840;48.892;15.312;2023-09-18T08:09:54;18.50;99.90
3648;DHT22;1840;48.892;15.312;2023-09-18T08:12:23;18.80;99.90
3648;DHT22;1840;48.892;15.312;2023-09-18T08:14:51;19.00;99.90
3648;DHT22;1840;48.892;15.312;2023-09-18T08:17:19;19.20;99.90
3648;DHT22;1840;48.892;15.312;2023-09-18T08:19:50;19.50;99.90
3648;DHT22;1840;48.892;15.312;2023-09-18T08:22:19;19.70;99.90
3648;DHT22;1840;48.892;15.312;2023-09-18T08:24:49;19.90;99.90
3648;DHT22;1840;48.892;15.312;2023-09-18T08:27:19;20.00;99.80
3648;DHT22;1840;48.892;15.312;2023-09-18T08:29:47;20.20;99.50
3648;DHT22;1840;48.892;15.312;2023-09-18T08:32:15;20.30;99.20
3648;DHT22;1840;48.892;15.312;2023-09-18T08:34:47;20.30;99.30
3648;DHT22;1840;48.892;15.312;2023-09-18T08:37:16;20.40;99.30
3648;DHT22;1840;48.892;15.312;2023-09-18T08:39:44;20.30;98.90
3648;DHT22;1840;48.892;15.312;2023-09-18T08:42:15;20.20;98.80
3648;DHT22;1840;48.892;15.312;2023-09-18T08:44:45;20.20;99.00
3648;DHT22;1840;48.892;15.312;2023-09-18T08:47:18;20.20;98.90
3648;DHT22;1840;48.892;15.312;2023-09-18T08:49:48;20.40;98.90
3648;DHT22;1840;48.892;15.312;2023-09-18T08:52:19;20.70;98.70
3648;DHT22;1840;48.892;15.312;2023-09-18T08:54:49;20.70;97.90
3648;DHT22;1840;48.892;15.312;2023-09-18T08:57:19;20.60;97.90
3648;DHT22;1840;48.892;15.312;2023-09-18T08:59:48;20.30;98.10
3648;DHT22;1840;48.892;15.312;2023-09-18T09:02:18;20.40;98.30
3648;DHT22;1840;48.892;15.312;2023-09-18T09:04:46;20.30;98.40
3648;DHT22;1840;48.892;15.312;2023-09-18T09:07:18;20.20;98.00
3648;DHT22;1840;48.892;15.312;2023-09-18T09:09:46;20.30;98.10
3648;DHT22;1840;48.892;15.312;2023-09-18T09:12:15;20.40;98.10
3648;DHT22;1840;48.892;15.312;2023-09-18T09:15:02;20.60;97.90
3648;DHT22;1840;48.892;15.312;2023-09-18T09:17:31;20.60;97.70
3648;DHT22;1840;48.892;15.312;2023-09-18T09:20:08;20.80;97.90
3648;DHT22;1840;48.892;15.312;2023-09-18T09:22:38;20.60;97.30
3648;DHT22;1840;48.892;15.312;2023-09-18T09:25:22;20.70;98.10
3648;DHT22;1840;48.892;15.312;2023-09-18T09:27:50;20.70;97.90
3648;DHT22;1840;48.892;15.312;2023-09-18T09:30:21;20.90;97.70
3648;DHT22;1840;48.892;15.312;2023-09-18T09:32:51;21.20;97.40
3648;DHT22;1840;48.892;15.312;2023-09-18T09:35:24;21.30;97.10
3648;DHT22;1840;48.892;15.312;2023-09-18T09:37:56;21.40;97.00
3648;DHT22;1840;48.892;15.312;2023-09-18T09:40:25;21.40;96.60
3648;DHT22;1840;48.892;15.312;2023-09-18T09:42:55;21.40;96.70
3648;DHT22;1840;48.892;15.312;2023-09-18T09:45:29;21.50;96.60
3648;DHT22;1840;48.892;15.312;2023-09-18T09:48:03;21.60;96.40
3648;DHT22;1840;48.892;15.312;2023-09-18T09:50:34;21.70;96.30
3648;DHT22;1840;48.892;15.312;2023-09-18T09:53:05;21.60;96.70
3648;DHT22;1840;48.892;15.312;2023-09-18T09:55:34;21.60;96.20
3648;DHT22;1840;48.892;15.312;2023-09-18T09:58:04;21.70;96.30
3648;DHT22;1840;48.892;15.312;2023-09-18T10:00:36;21.80;96.10
3648;DHT22;1840;48.892;15.312;2023-09-18T10:03:11;21.90;95.70
3648;DHT22;1840;48.892;15.312;2023-09-18T10:05:41;22.00;95.80
3648;DHT22;1840;48.892;15.312;2023-09-18T10:08:12;22.00;95.90
3648;DHT22;1840;48.892;15.312;2023-09-18T10:10:45;22.10;95.60
3648;DHT22;1840;48.892;15.312;2023-09-18T10:13:17;22.20;95.50
3648;DHT22;1840;48.892;15.312;2023-09-18T10:15:50;22.30;95.40
3648;DHT22;1840;48.892;15.312;2023-09-18T10:18:26;22.50;95.60
3648;DHT22;1840;48.892;15.312;2023-09-18T10:21:00;22.40;94.80
3648;DHT22;1840;48.892;15.312;2023-09-18T10:23:37;22.10;95.20
3648;DHT22;1840;48.892;15.312;2023-09-18T10:26:07;22.00;95.30
3648;DHT22;1840;48.892;15.312;2023-09-18T10:28:39;22.00;95.60
3648;DHT22;1840;48.892;15.312;2023-09-18T10:31:09;22.20;95.20
3648;DHT22;1840;48.892;15.312;2023-09-18T10:33:39;22.60;95.00
3648;DHT22;1840;48.892;15.312;2023-09-18T10:36:08;22.80;95.00
3648;DHT22;1840;48.892;15.312;2023-09-18T10:38:38;22.60;94.80
3648;DHT22;1840;48.892;15.312;2023-09-18T10:41:08;22.60;94.40
3648;DHT22;1840;48.892;15.312;2023-09-18T10:43:38;22.30;94.60
3648;DHT22;1840;48.892;15.312;2023-09-18T10:46:06;22.10;94.90
3648;DHT22;1840;48.892;15.312;2023-09-18T10:48:36;22.00;95.00
3648;DHT22;1840;48.892;15.312;2023-09-18T10:51:06;21.90;95.20
3648;DHT22;1840;48.892;15.312;2023-09-18T10:53:34;22.10;94.80
3648;DHT22;1840;48.892;15.312;2023-09-18T10:56:02;22.40;94.80
3648;DHT22;1840;48.892;15.312;2023-09-18T10:58:33;22.20;94.70
3648;DHT22;1840;48.892;15.312;2023-09-18T11:01:04;22.30;94.80
3648;DHT22;1840;48.892;15.312;2023-09-18T11:03:33;22.30;94.80
3648;DHT22;1840;48.892;15.312;2023-09-18T11:06:28;22.20;95.00
3648;DHT22;1840;48.892;15.312;2023-09-18T11:09:00;22.70;94.80
3648;DHT22;1840;48.892;15.312;2023-09-18T11:11:31;23.10;94.10
3648;DHT22;1840;48.892;15.312;2023-09-18T11:14:02;22.90;93.80
3648;DHT22;1840;48.892;15.312;2023-09-18T11:16:38;22.90;94.20
3648;DHT22;1840;48.892;15.312;2023-09-18T11:19:11;22.80;94.50
3648;DHT22;1840;48.892;15.312;2023-09-18T11:21:42;22.90;94.40
3648;DHT22;1840;48.892;15.312;2023-09-18T11:24:16;22.90;94.20
3648;DHT22;1840;48.892;15.312;2023-09-18T11:26:47;23.20;94.00
3648;DHT22;1840;48.892;15.312;2023-09-18T11:29:17;23.20;93.80
3648;DHT22;1840;48.892;15.312;2023-09-18T11:31:51;23.10;94.10
3648;DHT22;1840;48.892;15.312;2023-09-18T11:34:22;23.20;93.80
3648;DHT22;1840;48.892;15.312;2023-09-18T11:36:52;23.40;93.60
3648;DHT22;1840;48.892;15.312;2023-09-18T11:39:41;23.50;93.60
3648;DHT22;1840;48.892;15.312;2023-09-18T11:42:13;23.60;93.50
3648;DHT22;1840;48.892;15.312;2023-09-18T11:44:43;23.60;93.40
3648;DHT22;1840;48.892;15.312;2023-09-18T11:47:16;23.90;93.50
3648;DHT22;1840;48.892;15.312;2023-09-18T11:49:52;23.70;93.30
3648;DHT22;1840;48.892;15.312;2023-09-18T11:52:27;23.70;93.20
3648;DHT22;1840;48.892;15.312;2023-09-18T11:54:57;23.70;93.20
3648;DHT22;1840;48.892;15.312;2023-09-18T11:57:25;23.80;92.80
3648;DHT22;1840;48.892;15.312;2023-09-18T11:59:55;23.80;93.00
3648;DHT22;1840;48.892;15.312;2023-09-18T12:02:28;24.20;92.80
3648;DHT22;1840;48.892;15.312;2023-09-18T12:05:10;24.20;92.60
3648;DHT22;1840;48.892;15.312;2023-09-18T12:07:39;24.40;92.40
3648;DHT22;1840;48.892;15.312;2023-09-18T12:10:11;24.50;92.00
3648;DHT22;1840;48.892;15.312;2023-09-18T12:12:39;24.70;92.00
3648;DHT22;1840;48.892;15.312;2023-09-18T12:15:11;24.80;92.00
3648;DHT22;1840;48.892;15.312;2023-09-18T12:17:39;24.70;91.50
3648;DHT22;1840;48.892;15.312;2023-09-18T12:20:14;24.80;91.40
3648;DHT22;1840;48.892;15.312;2023-09-18T12:22:49;24.70;90.90
3648;DHT22;1840;48.892;15.312;2023-09-18T12:25:18;24.40;91.30
3648;DHT22;1840;48.892;15.312;2023-09-18T12:27:51;24.30;91.10
3648;DHT22;1840;48.892;15.312;2023-09-18T12:30:20;24.10;91.30
3648;DHT22;1840;48.892;15.312;2023-09-18T12:32:52;24.10;91.30
3648;DHT22;1840;48.892;15.312;2023-09-18T12:35:25;24.20;91.60
3648;DHT22;1840;48.892;15.312;2023-09-18T12:37:59;24.60;91.20
3648;DHT22;1840;48.892;15.312;2023-09-18T12:40:29;24.60;90.70
3648;DHT22;1840;48.892;15.312;2023-09-18T12:43:00;24.80;90.40
3648;DHT22;1840;48.892;15.312;2023-09-18T12:45:29;24.70;90.10
3648;DHT22;1840;48.892;15.312;2023-09-18T12:47:57;24.70;90.50
3648;DHT22;1840;48.892;15.312;2023-09-18T12:50:26;24.70;90.40
3648;DHT22;1840;48.892;15.312;2023-09-18T12:53:10;24.60;90.80
3648;DHT22;1840;48.892;15.312;2023-09-18T12:55:39;24.70;91.00
3648;DHT22;1840;48.892;15.312;2023-09-18T12:58:10;24.90;90.70
3648;DHT22;1840;48.892;15.312;2023-09-18T13:00:45;24.80;90.10
3648;DHT22;1840;48.892;15.312;2023-09-18T13:03:13;24.70;90.40
3648;DHT22;1840;48.892;15.312;2023-09-18T13:05:41;24.50;90.70
3648;DHT22;1840;48.892;15.312;2023-09-18T13:08:11;24.60;90.80
3648;DHT22;1840;48.892;15.312;2023-09-18T13:10:46;24.50;91.00
3648;DHT22;1840;48.892;15.312;2023-09-18T13:13:17;24.50;91.20
3648;DHT22;1840;48.892;15.312;2023-09-18T13:15:46;24.70;91.00
3648;DHT22;1840;48.892;15.312;2023-09-18T13:18:16;24.60;90.90
3648;DHT22;1840;48.892;15.312;2023-09-18T13:20:46;24.40;91.00
3648;DHT22;1840;48.892;15.312;2023-09-18T13:23:15;24.30;91.30
3648;DHT22;1840;48.892;15.312;2023-09-18T13:25:48;24.30;91.20
3648;DHT22;1840;48.892;15.312;2023-09-18T13:28:15;24.10;91.20
3648;DHT22;1840;48.892;15.312;2023-09-18T13:30:47;24.10;91.30
3648;DHT22;1840;48.892;15.312;2023-09-18T13:33:16;24.20;91.30
3648;DHT22;1840;48.892;15.312;2023-09-18T13:35:45;24.30;91.20
3648;DHT22;1840;48.892;15.312;2023-09-18T13:38:15;24.30;91.30
3648;DHT22;1840;48.892;15.312;2023-09-18T13:40:45;24.30;91.20
3648;DHT22;1840;48.892;15.312;2023-09-18T13:43:14;24.30;91.00
3648;DHT22;1840;48.892;15.312;2023-09-18T13:45:42;24.40;91.10
3648;DHT22;1840;48.892;15.312;2023-09-18T13:48:10;24.20;90.90
3648;DHT22;1840;48.892;15.312;2023-09-18T13:50:39;24.10;91.10
3648;DHT22;1840;48.892;15.312;2023-09-18T13:53:07;23.90;91.30
3648;DHT22;1840;48.892;15.312;2023-09-18T13:55:36;24.20;91.20
3648;DHT22;1840;48.892;15.312;2023-09-18T13:58:04;24.20;91.10
3648;DHT22;1840;48.892;15.312;2023-09-18T14:00:32;24.30;91.10
3648;DHT22;1840;48.892;15.312;2023-09-18T14:03:01;24.30;90.90
3648;DHT22;1840;48.892;15.312;2023-09-18T14:05:30;24.40;90.80
3648;DHT22;1840;48.892;15.312;2023-09-18T14:08:00;24.50;90.80
3648;DHT22;1840;48.892;15.312;2023-09-18T14:10:29;24.30;90.60
3648;DHT22;1840;48.892;15.312;2023-09-18T14:12:59;24.40;90.90
3648;DHT22;1840;48.892;15.312;2023-09-18T14:15:27;24.50;90.70
3648;DHT22;1840;48.892;15.312;2023-09-18T14:17:56;24.30;90.90
3648;DHT22;1840;48.892;15.312;2023-09-18T14:20:24;24.30;90.90
3648;DHT22;1840;48.892;15.312;2023-09-18T14:22:52;24.20;90.50
3648;DHT22;1840;48.892;15.312;2023-09-18T14:25:20;24.00;90.80
3648;DHT22;1840;48.892;15.312;2023-09-18T14:27:49;23.90;91.20
3648;DHT22;1840;48.892;15.312;2023-09-18T14:30:18;23.70;91.20
3648;DHT22;1840;48.892;15.312;2023-09-18T14:32:46;23.50;91.20
3648;DHT22;1840;48.892;15.312;2023-09-18T14:35:15;23.50;90.90
3648;DHT22;1840;48.892;15.312;2023-09-18T14:37:43;23.50;91.10
3648;DHT22;1840;48.892;15.312;2023-09-18T14:40:11;23.70;91.00
3648;DHT22;1840;48.892;15.312;2023-09-18T14:42:39;23.70;91.10
3648;DHT22;1840;48.892;15.312;2023-09-18T14:45:08;23.60;90.90
3648;DHT22;1840;48.892;15.312;2023-09-18T14:47:40;23.50;91.20
3648;DHT22;1840;48.892;15.312;2023-09-18T14:50:09;23.70;91.00
3648;DHT22;1840;48.892;15.312;2023-09-18T14:52:37;23.90;90.80
3648;DHT22;1840;48.892;15.312;2023-09-18T14:55:06;23.90;90.80
3648;DHT22;1840;48.892;15.312;2023-09-18T14:57:35;23.90;90.90
3648;DHT22;1840;48.892;15.312;2023-09-18T15:00:04;24.20;90.70
3648;DHT22;1840;48.892;15.312;2023-09-18T15:02:34;24.10;90.50
3648;DHT22;1840;48.892;15.312;2023-09-18T15:05:04;23.80;90.80
3648;DHT22;1840;48.892;15.312;2023-09-18T15:07:35;23.70;91.00
3648;DHT22;1840;48.892;15.312;2023-09-18T15:10:04;23.70;90.60
3648;DHT22;1840;48.892;15.312;2023-09-18T15:12:33;23.70;90.80
3648;DHT22;1840;48.892;15.312;2023-09-18T15:15:01;23.80;90.80
3648;DHT22;1840;48.892;15.312;2023-09-18T15:17:29;23.80;90.70
3648;DHT22;1840;48.892;15.312;2023-09-18T15:19:57;23.90;90.70
3648;DHT22;1840;48.892;15.312;2023-09-18T15:22:26;24.00;90.60
3648;DHT22;1840;48.892;15.312;2023-09-18T15:24:54;24.00;90.60
3648;DHT22;1840;48.892;15.312;2023-09-18T15:27:26;24.00;90.70
3648;DHT22;1840;48.892;15.312;2023-09-18T15:29:54;24.00;90.60
3648;DHT22;1840;48.892;15.312;2023-09-18T15:32:22;23.70;90.80
3648;DHT22;1840;48.892;15.312;2023-09-18T15:34:50;23.60;91.00
3648;DHT22;1840;48.892;15.312;2023-09-18T15:37:19;23.60;91.20
3648;DHT22;1840;48.892;15.312;2023-09-18T15:39:48;23.70;91.00
3648;DHT22;1840;48.892;15.312;2023-09-18T15:42:18;23.80;90.80
3648;DHT22;1840;48.892;15.312;2023-09-18T15:44:46;23.80;90.90
3648;DHT22;1840;48.892;15.312;2023-09-18T15:47:14;23.70;90.90
3648;DHT22;1840;48.892;15.312;2023-09-18T15:49:42;23.60;91.20
3648;DHT22;1840;48.892;15.312;2023-09-18T15:52:10;23.60;91.20
3648;DHT22;1840;48.892;15.312;2023-09-18T15:54:38;23.70;91.30
3648;DHT22;1840;48.892;15.312;2023-09-18T15:57:08;23.70;91.20
3648;DHT22;1840;48.892;15.312;2023-09-18T15:59:36;23.60;91.40
3648;DHT22;1840;48.892;15.312;2023-09-18T16:02:05;23.60;91.30